sensor_id;sensor_type;location;lat;lon;timestamp;P1;durP1;ratioP1;P2;durP2;ratioP2
40591;SDS011;26301;42.832;23.918;2023-08-31T00:00:41;13.35;;;8.85;;
40591;SDS011;26301;42.832;23.918;2023-08-31T00:03:07;9.68;;;7.80;;
40591;SDS011;26301;42.832;23.918;2023-08-31T00:05:37;12.27;;;9.25;;
40591;SDS011;26301;42.832;23.918;2023-08-31T00:08:06;11.25;;;8.90;;
40591;SDS011;26301;42.832;23.918;2023-08-31T00:10:34;11.05;;;8.23;;
40591;SDS011;26301;42.832;23.918;2023-08-31T00:13:04;11.13;;;8.70;;
40591;SDS011;26301;42.832;23.918;2023-08-31T00:15:31;10.63;;;8.18;;
40591;SDS011;26301;42.832;23.918;2023-08-31T00:18:00;9.80;;;8.80;;
40591;SDS011;26301;42.832;23.918;2023-08-31T00:20:31;9.52;;;7.97;;
40591;SDS011;26301;42.832;23.918;2023-08-31T00:23:07;10.85;;;8.48;;
40591;SDS011;26301;42.832;23.918;2023-08-31T00:25:33;10.05;;;8.80;;
40591;SDS011;26301;42.832;23.918;2023-08-31T00:27:59;9.60;;;8.60;;
40591;SDS011;26301;42.832;23.918;2023-08-31T00:30:30;10.82;;;8.88;;
40591;SDS011;26301;42.832;23.918;2023-08-31T00:32:57;11.63;;;8.50;;
40591;SDS011;26301;42.832;23.918;2023-08-31T00:35:27;10.73;;;8.68;;
40591;SDS011;26301;42.832;23.918;2023-08-31T00:37:53;10.65;;;8.48;;
40591;SDS011;26301;42.832;23.918;2023-08-31T00:40:23;11.75;;;8.57;;
40591;SDS011;26301;42.832;23.918;2023-08-31T00:42:53;10.93;;;8.10;;
40591;SDS011;26301;42.832;23.918;2023-08-31T00:45:19;9.73;;;8.60;;
40591;SDS011;26301;42.832;23.918;2023-08-31T00:47:48;9.48;;;8.25;;
40591;SDS011;26301;42.832;23.918;2023-08-31T00:50:15;10.82;;;8.88;;
40591;SDS011;26301;42.832;23.918;2023-08-31T00:52:41;10.77;;;8.68;;
40591;SDS011;26301;42.832;23.918;2023-08-31T00:55:09;10.55;;;9.32;;
40591;SDS011;26301;42.832;23.918;2023-08-31T00:57:35;12.50;;;8.98;;
40591;SDS011;26301;42.832;23.918;2023-08-31T01:00:02;9.77;;;8.13;;
40591;SDS011;26301;42.832;23.918;2023-08-31T01:05:09;14.27;;;9.18;;
40591;SDS011;26301;42.832;23.918;2023-08-31T01:13:13;10.20;;;9.07;;
40591;SDS011;26301;42.832;23.918;2023-08-31T01:15:41;11.65;;;9.10;;
40591;SDS011;26301;42.832;23.918;2023-08-31T01:18:12;11.43;;;8.80;;
40591;SDS011;26301;42.832;23.918;2023-08-31T01:26:13;11.43;;;9.13;;
40591;SDS011;26301;42.832;23.918;2023-08-31T01:28:42;10.43;;;9.10;;
40591;SDS011;26301;42.832;23.918;2023-08-31T01:31:08;10.80;;;8.95;;
40591;SDS011;26301;42.832;23.918;2023-08-31T01:33:35;11.35;;;9.60;;
40591;SDS011;26301;42.832;23.918;2023-08-31T01:36:01;12.02;;;9.15;;
40591;SDS011;26301;42.832;23.918;2023-08-31T01:38:41;11.10;;;9.38;;
40591;SDS011;26301;42.832;23.918;2023-08-31T01:41:13;10.45;;;8.30;;
40591;SDS011;26301;42.832;23.918;2023-08-31T01:43:43;11.48;;;8.75;;
40591;SDS011;26301;42.832;23.918;2023-08-31T01:46:10;9.68;;;8.68;;
40591;SDS011;26301;42.832;23.918;2023-08-31T01:48:39;11.27;;;8.90;;
40591;SDS011;26301;42.832;23.918;2023-08-31T01:51:07;12.38;;;8.57;;
40591;SDS011;26301;42.832;23.918;2023-08-31T01:53:34;14.70;;;8.68;;
40591;SDS011;26301;42.832;23.918;2023-08-31T01:56:00;13.55;;;8.93;;
40591;SDS011;26301;42.832;23.918;2023-08-31T01:58:27;11.70;;;8.65;;
40591;SDS011;26301;42.832;23.918;2023-08-31T02:00:53;11.05;;;8.80;;
40591;SDS011;26301;42.832;23.918;2023-08-31T02:03:19;10.70;;;8.02;;
40591;SDS011;26301;42.832;23.918;2023-08-31T02:05:45;7.97;;;7.03;;
40591;SDS011;26301;42.832;23.918;2023-08-31T02:08:11;9.05;;;6.78;;
40591;SDS011;26301;42.832;23.918;2023-08-31T02:10:37;8.38;;;6.65;;
40591;SDS011;26301;42.832;23.918;2023-08-31T02:13:03;10.57;;;6.78;;
40591;SDS011;26301;42.832;23.918;2023-08-31T02:15:29;7.95;;;6.35;;
40591;SDS011;26301;42.832;23.918;2023-08-31T02:17:55;7.82;;;6.82;;
40591;SDS011;26301;42.832;23.918;2023-08-31T02:20:21;8.18;;;6.53;;
40591;SDS011;26301;42.832;23.918;2023-08-31T02:22:46;10.38;;;6.30;;
40591;SDS011;26301;42.832;23.918;2023-08-31T02:25:13;7.20;;;5.38;;
40591;SDS011;26301;42.832;23.918;2023-08-31T02:27:41;12.32;;;5.38;;
40591;SDS011;26301;42.832;23.918;2023-08-31T02:30:13;7.18;;;4.35;;
40591;SDS011;26301;42.832;23.918;2023-08-31T02:32:40;8.48;;;5.15;;
40591;SDS011;26301;42.832;23.918;2023-08-31T02:35:06;7.93;;;4.50;;
40591;SDS011;26301;42.832;23.918;2023-08-31T02:37:32;9.65;;;5.35;;
40591;SDS011;26301;42.832;23.918;2023-08-31T02:39:58;6.75;;;4.82;;
40591;SDS011;26301;42.832;23.918;2023-08-31T02:42:24;5.65;;;4.20;;
40591;SDS011;26301;42.832;23.918;2023-08-31T02:44:53;6.28;;;4.40;;
40591;SDS011;26301;42.832;23.918;2023-08-31T02:47:19;7.68;;;4.25;;
40591;SDS011;26301;42.832;23.918;2023-08-31T02:49:45;7.88;;;4.30;;
40591;SDS011;26301;42.832;23.918;2023-08-31T02:52:13;9.55;;;3.35;;
40591;SDS011;26301;42.832;23.918;2023-08-31T02:54:39;7.28;;;4.05;;
40591;SDS011;26301;42.832;23.918;2023-08-31T02:57:05;9.02;;;3.55;;
40591;SDS011;26301;42.832;23.918;2023-08-31T02:59:31;6.63;;;3.72;;
40591;SDS011;26301;42.832;23.918;2023-08-31T03:02:01;5.72;;;2.83;;
40591;SDS011;26301;42.832;23.918;2023-08-31T03:04:28;4.15;;;2.72;;
40591;SDS011;26301;42.832;23.918;2023-08-31T03:06:54;6.43;;;3.30;;
40591;SDS011;26301;42.832;23.918;2023-08-31T03:09:23;6.20;;;3.17;;
40591;SDS011;26301;42.832;23.918;2023-08-31T03:11:49;7.22;;;2.63;;
40591;SDS011;26301;42.832;23.918;2023-08-31T03:14:15;6.53;;;2.40;;
40591;SDS011;26301;42.832;23.918;2023-08-31T03:16:43;4.03;;;2.40;;
40591;SDS011;26301;42.832;23.918;2023-08-31T03:19:10;10.93;;;2.70;;
40591;SDS011;26301;42.832;23.918;2023-08-31T03:21:36;5.03;;;2.30;;
40591;SDS011;26301;42.832;23.918;2023-08-31T03:24:03;5.35;;;2.33;;
40591;SDS011;26301;42.832;23.918;2023-08-31T03:26:29;3.80;;;2.38;;
40591;SDS011;26301;42.832;23.918;2023-08-31T03:28:55;3.20;;;1.83;;
40591;SDS011;26301;42.832;23.918;2023-08-31T03:31:21;4.03;;;2.20;;
40591;SDS011;26301;42.832;23.918;2023-08-31T03:33:50;7.75;;;2.72;;
40591;SDS011;26301;42.832;23.918;2023-08-31T03:36:16;4.22;;;2.08;;
40591;SDS011;26301;42.832;23.918;2023-08-31T03:38:43;6.18;;;2.25;;
40591;SDS011;26301;42.832;23.918;2023-08-31T03:41:08;4.35;;;2.05;;
40591;SDS011;26301;42.832;23.918;2023-08-31T03:43:37;5.88;;;2.20;;
40591;SDS011;26301;42.832;23.918;2023-08-31T03:46:03;5.35;;;2.00;;
40591;SDS011;26301;42.832;23.918;2023-08-31T03:48:29;6.45;;;2.40;;
40591;SDS011;26301;42.832;23.918;2023-08-31T03:50:55;7.43;;;2.17;;
40591;SDS011;26301;42.832;23.918;2023-08-31T03:53:21;3.78;;;1.70;;
40591;SDS011;26301;42.832;23.918;2023-08-31T03:55:47;5.07;;;2.00;;
40591;SDS011;26301;42.832;23.918;2023-08-31T03:58:13;3.83;;;2.00;;
40591;SDS011;26301;42.832;23.918;2023-08-31T04:00:43;6.68;;;2.05;;
40591;SDS011;26301;42.832;23.918;2023-08-31T04:03:09;5.28;;;1.95;;
40591;SDS011;26301;42.832;23.918;2023-08-31T04:05:35;5.50;;;1.92;;
40591;SDS011;26301;42.832;23.918;2023-08-31T04:08:01;5.60;;;1.95;;
40591;SDS011;26301;42.832;23.918;2023-08-31T04:10:27;4.88;;;2.10;;
40591;SDS011;26301;42.832;23.918;2023-08-31T04:12:56;5.70;;;2.35;;
40591;SDS011;26301;42.832;23.918;2023-08-31T04:15:24;4.45;;;1.70;;
40591;SDS011;26301;42.832;23.918;2023-08-31T04:17:50;5.70;;;1.70;;
40591;SDS011;26301;42.832;23.918;2023-08-31T04:20:16;6.85;;;2.00;;
40591;SDS011;26301;42.832;23.918;2023-08-31T04:22:43;3.22;;;1.77;;
40591;SDS011;26301;42.832;23.918;2023-08-31T04:25:08;4.57;;;1.52;;
40591;SDS011;26301;42.832;23.918;2023-08-31T04:27:41;4.10;;;1.50;;
40591;SDS011;26301;42.832;23.918;2023-08-31T04:30:11;6.97;;;2.55;;
40591;SDS011;26301;42.832;23.918;2023-08-31T04:32:37;5.75;;;2.25;;
40591;SDS011;26301;42.832;23.918;2023-08-31T04:35:03;3.72;;;1.70;;
40591;SDS011;26301;42.832;23.918;2023-08-31T04:37:33;5.68;;;1.67;;
40591;SDS011;26301;42.832;23.918;2023-08-31T04:40:02;4.28;;;1.70;;
40591;SDS011;26301;42.832;23.918;2023-08-31T04:42:32;4.95;;;1.70;;
40591;SDS011;26301;42.832;23.918;2023-08-31T04:44:58;5.03;;;1.80;;
40591;SDS011;26301;42.832;23.918;2023-08-31T04:47:24;5.28;;;1.30;;
40591;SDS011;26301;42.832;23.918;2023-08-31T04:49:52;4.22;;;1.90;;
40591;SDS011;26301;42.832;23.918;2023-08-31T04:52:18;3.72;;;1.15;;
40591;SDS011;26301;42.832;23.918;2023-08-31T04:54:44;8.90;;;1.40;;
40591;SDS011;26301;42.832;23.918;2023-08-31T04:57:13;5.13;;;1.58;;
40591;SDS011;26301;42.832;23.918;2023-08-31T04:59:39;4.57;;;1.58;;
40591;SDS011;26301;42.832;23.918;2023-08-31T05:02:05;3.97;;;1.38;;
40591;SDS011;26301;42.832;23.918;2023-08-31T05:04:31;6.55;;;1.65;;
40591;SDS011;26301;42.832;23.918;2023-08-31T05:06:57;5.63;;;1.40;;
40591;SDS011;26301;42.832;23.918;2023-08-31T05:09:25;5.05;;;1.27;;
40591;SDS011;26301;42.832;23.918;2023-08-31T05:11:52;6.65;;;1.75;;
40591;SDS011;26301;42.832;23.918;2023-08-31T05:14:20;4.18;;;1.58;;
40591;SDS011;26301;42.832;23.918;2023-08-31T05:16:50;4.03;;;1.92;;
40591;SDS011;26301;42.832;23.918;2023-08-31T05:19:16;3.53;;;1.30;;
40591;SDS011;26301;42.832;23.918;2023-08-31T05:21:43;4.40;;;1.70;;
40591;SDS011;26301;42.832;23.918;2023-08-31T05:24:09;2.92;;;1.33;;
40591;SDS011;26301;42.832;23.918;2023-08-31T05:26:35;2.97;;;1.30;;
40591;SDS011;26301;42.832;23.918;2023-08-31T05:29:01;7.13;;;1.70;;
40591;SDS011;26301;42.832;23.918;2023-08-31T05:31:29;2.65;;;1.17;;
40591;SDS011;26301;42.832;23.918;2023-08-31T05:33:55;5.95;;;1.73;;
40591;SDS011;26301;42.832;23.918;2023-08-31T05:36:21;6.40;;;1.70;;
40591;SDS011;26301;42.832;23.918;2023-08-31T05:38:47;5.32;;;1.80;;
40591;SDS011;26301;42.832;23.918;2023-08-31T05:41:12;7.40;;;1.90;;
40591;SDS011;26301;42.832;23.918;2023-08-31T05:43:38;4.97;;;2.25;;
40591;SDS011;26301;42.832;23.918;2023-08-31T05:46:06;12.13;;;2.33;;
40591;SDS011;26301;42.832;23.918;2023-08-31T05:48:33;8.93;;;3.22;;
40591;SDS011;26301;42.832;23.918;2023-08-31T05:51:00;5.05;;;2.78;;
40591;SDS011;26301;42.832;23.918;2023-08-31T05:53:26;5.68;;;2.67;;
40591;SDS011;26301;42.832;23.918;2023-08-31T05:55:54;4.35;;;2.78;;
40591;SDS011;26301;42.832;23.918;2023-08-31T05:58:27;8.13;;;3.00;;
40591;SDS011;26301;42.832;23.918;2023-08-31T06:00:54;14.20;;;3.20;;
40591;SDS011;26301;42.832;23.918;2023-08-31T06:03:21;5.40;;;3.25;;
40591;SDS011;26301;42.832;23.918;2023-08-31T06:05:47;4.53;;;2.65;;
40591;SDS011;26301;42.832;23.918;2023-08-31T06:08:14;10.90;;;2.97;;
40591;SDS011;26301;42.832;23.918;2023-08-31T06:10:41;4.68;;;2.72;;
40591;SDS011;26301;42.832;23.918;2023-08-31T06:13:07;6.97;;;2.92;;
40591;SDS011;26301;42.832;23.918;2023-08-31T06:15:33;5.78;;;3.00;;
40591;SDS011;26301;42.832;23.918;2023-08-31T06:17:59;4.55;;;2.78;;
40591;SDS011;26301;42.832;23.918;2023-08-31T06:20:25;13.60;;;2.80;;
40591;SDS011;26301;42.832;23.918;2023-08-31T06:22:51;5.00;;;2.50;;
40591;SDS011;26301;42.832;23.918;2023-08-31T06:25:17;6.05;;;2.85;;
40591;SDS011;26301;42.832;23.918;2023-08-31T06:27:44;12.32;;;2.95;;
40591;SDS011;26301;42.832;23.918;2023-08-31T06:30:11;7.35;;;2.90;;
40591;SDS011;26301;42.832;23.918;2023-08-31T06:32:44;6.95;;;2.58;;
40591;SDS011;26301;42.832;23.918;2023-08-31T06:35:12;3.83;;;2.40;;
40591;SDS011;26301;42.832;23.918;2023-08-31T06:37:39;6.03;;;2.55;;
40591;SDS011;26301;42.832;23.918;2023-08-31T06:40:05;4.40;;;2.10;;
40591;SDS011;26301;42.832;23.918;2023-08-31T06:42:33;5.28;;;2.33;;
40591;SDS011;26301;42.832;23.918;2023-08-31T06:45:00;3.92;;;2.33;;
40591;SDS011;26301;42.832;23.918;2023-08-31T06:47:26;5.95;;;2.35;;
40591;SDS011;26301;42.832;23.918;2023-08-31T06:49:53;5.07;;;2.13;;
40591;SDS011;26301;42.832;23.918;2023-08-31T06:52:19;6.65;;;2.40;;
40591;SDS011;26301;42.832;23.918;2023-08-31T06:54:45;4.47;;;2.20;;
40591;SDS011;26301;42.832;23.918;2023-08-31T06:57:11;5.60;;;2.65;;
40591;SDS011;26301;42.832;23.918;2023-08-31T06:59:37;4.88;;;2.42;;
40591;SDS011;26301;42.832;23.918;2023-08-31T07:02:03;3.67;;;2.20;;
40591;SDS011;26301;42.832;23.918;2023-08-31T07:04:28;5.22;;;2.60;;
40591;SDS011;26301;42.832;23.918;2023-08-31T07:06:54;8.48;;;2.00;;
40591;SDS011;26301;42.832;23.918;2023-08-31T07:09:20;4.97;;;2.15;;
40591;SDS011;26301;42.832;23.918;2023-08-31T07:11:46;11.30;;;2.60;;
40591;SDS011;26301;42.832;23.918;2023-08-31T07:14:13;5.57;;;2.75;;
40591;SDS011;26301;42.832;23.918;2023-08-31T07:16:39;21.52;;;3.10;;
40591;SDS011;26301;42.832;23.918;2023-08-31T07:19:05;4.10;;;2.30;;
40591;SDS011;26301;42.832;23.918;2023-08-31T07:21:31;6.03;;;2.25;;
40591;SDS011;26301;42.832;23.918;2023-08-31T07:23:57;6.00;;;2.35;;
40591;SDS011;26301;42.832;23.918;2023-08-31T07:26:23;5.30;;;2.50;;
40591;SDS011;26301;42.832;23.918;2023-08-31T07:28:49;3.95;;;2.22;;
40591;SDS011;26301;42.832;23.918;2023-08-31T07:31:15;4.90;;;2.80;;
40591;SDS011;26301;42.832;23.918;2023-08-31T07:33:41;6.10;;;3.28;;
40591;SDS011;26301;42.832;23.918;2023-08-31T07:36:08;6.57;;;2.63;;
40591;SDS011;26301;42.832;23.918;2023-08-31T07:38:36;5.22;;;2.78;;
40591;SDS011;26301;42.832;23.918;2023-08-31T07:41:02;3.97;;;2.40;;
40591;SDS011;26301;42.832;23.918;2023-08-31T07:43:29;8.30;;;3.22;;
40591;SDS011;26301;42.832;23.918;2023-08-31T07:45:55;6.43;;;3.25;;
40591;SDS011;26301;42.832;23.918;2023-08-31T07:48:22;5.07;;;3.13;;
40591;SDS011;26301;42.832;23.918;2023-08-31T07:50:50;7.28;;;3.42;;
40591;SDS011;26301;42.832;23.918;2023-08-31T07:53:17;5.78;;;2.95;;
40591;SDS011;26301;42.832;23.918;2023-08-31T07:55:50;5.80;;;3.38;;
40591;SDS011;26301;42.832;23.918;2023-08-31T07:58:18;5.72;;;3.10;;
40591;SDS011;26301;42.832;23.918;2023-08-31T08:00:46;5.95;;;3.22;;
40591;SDS011;26301;42.832;23.918;2023-08-31T08:03:12;5.15;;;3.10;;
40591;SDS011;26301;42.832;23.918;2023-08-31T08:05:39;6.18;;;3.40;;
40591;SDS011;26301;42.832;23.918;2023-08-31T08:08:09;6.30;;;3.30;;
40591;SDS011;26301;42.832;23.918;2023-08-31T08:10:37;6.03;;;2.90;;
40591;SDS011;26301;42.832;23.918;2023-08-31T08:13:03;7.30;;;2.53;;
40591;SDS011;26301;42.832;23.918;2023-08-31T08:15:30;4.65;;;2.25;;
40591;SDS011;26301;42.832;23.918;2023-08-31T08:17:56;5.28;;;2.05;;
40591;SDS011;26301;42.832;23.918;2023-08-31T08:20:22;5.05;;;2.20;;
40591;SDS011;26301;42.832;23.918;2023-08-31T08:22:49;4.72;;;2.47;;
40591;SDS011;26301;42.832;23.918;2023-08-31T08:25:18;4.95;;;2.30;;
40591;SDS011;26301;42.832;23.918;2023-08-31T08:27:47;5.55;;;2.30;;
40591;SDS011;26301;42.832;23.918;2023-08-31T08:30:14;3.38;;;1.83;;
40591;SDS011;26301;42.832;23.918;2023-08-31T08:32:44;4.63;;;2.25;;
40591;SDS011;26301;42.832;23.918;2023-08-31T08:35:10;4.03;;;2.15;;
40591;SDS011;26301;42.832;23.918;2023-08-31T08:37:36;5.97;;;3.08;;
40591;SDS011;26301;42.832;23.918;2023-08-31T08:40:02;4.93;;;2.92;;
40591;SDS011;26301;42.832;23.918;2023-08-31T08:42:31;5.03;;;3.00;;
40591;SDS011;26301;42.832;23.918;2023-08-31T08:45:01;4.55;;;2.55;;
40591;SDS011;26301;42.832;23.918;2023-08-31T08:47:28;7.35;;;3.00;;
40591;SDS011;26301;42.832;23.918;2023-08-31T08:49:55;5.47;;;3.17;;
40591;SDS011;26301;42.832;23.918;2023-08-31T08:52:29;5.55;;;2.95;;
40591;SDS011;26301;42.832;23.918;2023-08-31T08:54:55;5.65;;;2.50;;
40591;SDS011;26301;42.832;23.918;2023-08-31T08:57:23;5.65;;;3.10;;
40591;SDS011;26301;42.832;23.918;2023-08-31T08:59:49;5.18;;;2.70;;
40591;SDS011;26301;42.832;23.918;2023-08-31T09:02:15;4.22;;;2.70;;
40591;SDS011;26301;42.832;23.918;2023-08-31T09:04:43;4.53;;;2.33;;
40591;SDS011;26301;42.832;23.918;2023-08-31T09:07:09;9.38;;;2.67;;
40591;SDS011;26301;42.832;23.918;2023-08-31T09:09:47;4.60;;;2.30;;
40591;SDS011;26301;42.832;23.918;2023-08-31T09:12:18;5.85;;;2.90;;
40591;SDS011;26301;42.832;23.918;2023-08-31T09:14:56;5.00;;;2.83;;
40591;SDS011;26301;42.832;23.918;2023-08-31T09:17:25;5.50;;;2.80;;
40591;SDS011;26301;42.832;23.918;2023-08-31T09:20:00;7.50;;;2.75;;
40591;SDS011;26301;42.832;23.918;2023-08-31T09:22:29;9.30;;;3.05;;
40591;SDS011;26301;42.832;23.918;2023-08-31T09:24:55;5.95;;;3.20;;
40591;SDS011;26301;42.832;23.918;2023-08-31T09:27:21;5.55;;;2.67;;
40591;SDS011;26301;42.832;23.918;2023-08-31T09:29:49;6.40;;;2.95;;
40591;SDS011;26301;42.832;23.918;2023-08-31T09:32:22;5.35;;;3.25;;
40591;SDS011;26301;42.832;23.918;2023-08-31T09:34:48;6.53;;;2.42;;
40591;SDS011;26301;42.832;23.918;2023-08-31T09:37:15;4.00;;;2.42;;
40591;SDS011;26301;42.832;23.918;2023-08-31T09:39:42;5.20;;;2.85;;
40591;SDS011;26301;42.832;23.918;2023-08-31T09:42:08;6.78;;;3.63;;
40591;SDS011;26301;42.832;23.918;2023-08-31T09:44:34;5.78;;;3.75;;
40591;SDS011;26301;42.832;23.918;2023-08-31T09:49:33;7.63;;;4.25;;
40591;SDS011;26301;42.832;23.918;2023-08-31T09:52:00;6.40;;;3.88;;
40591;SDS011;26301;42.832;23.918;2023-08-31T09:54:30;8.05;;;4.10;;
40591;SDS011;26301;42.832;23.918;2023-08-31T09:56:57;7.10;;;4.43;;
40591;SDS011;26301;42.832;23.918;2023-08-31T09:59:26;7.00;;;4.68;;
40591;SDS011;26301;42.832;23.918;2023-08-31T10:01:53;8.15;;;4.82;;
40591;SDS011;26301;42.832;23.918;2023-08-31T10:04:21;9.40;;;5.00;;
40591;SDS011;26301;42.832;23.918;2023-08-31T10:06:48;7.50;;;4.55;;
40591;SDS011;26301;42.832;23.918;2023-08-31T10:09:15;6.45;;;4.55;;
40591;SDS011;26301;42.832;23.918;2023-08-31T10:11:41;7.78;;;4.78;;
40591;SDS011;26301;42.832;23.918;2023-08-31T10:14:10;7.40;;;4.82;;
40591;SDS011;26301;42.832;23.918;2023-08-31T10:16:40;7.13;;;4.85;;
40591;SDS011;26301;42.832;23.918;2023-08-31T10:19:08;7.05;;;4.78;;
40591;SDS011;26301;42.832;23.918;2023-08-31T10:21:34;7.28;;;4.80;;
40591;SDS011;26301;42.832;23.918;2023-08-31T10:24:00;7.55;;;4.90;;
40591;SDS011;26301;42.832;23.918;2023-08-31T10:26:27;8.38;;;5.22;;
40591;SDS011;26301;42.832;23.918;2023-08-31T10:28:58;6.03;;;4.45;;
40591;SDS011;26301;42.832;23.918;2023-08-31T10:31:28;7.90;;;4.85;;
40591;SDS011;26301;42.832;23.918;2023-08-31T10:33:56;6.75;;;4.70;;
40591;SDS011;26301;42.832;23.918;2023-08-31T10:36:34;7.47;;;5.10;;
40591;SDS011;26301;42.832;23.918;2023-08-31T10:39:05;7.15;;;4.45;;
40591;SDS011;26301;42.832;23.918;2023-08-31T10:41:36;6.43;;;4.15;;
40591;SDS011;26301;42.832;23.918;2023-08-31T10:44:02;7.40;;;4.10;;
40591;SDS011;26301;42.832;23.918;2023-08-31T10:46:46;6.93;;;4.53;;
40591;SDS011;26301;42.832;23.918;2023-08-31T10:49:14;9.13;;;4.07;;
40591;SDS011;26301;42.832;23.918;2023-08-31T10:54:42;5.80;;;4.10;;
40591;SDS011;26301;42.832;23.918;2023-08-31T10:57:08;6.93;;;4.47;;
40591;SDS011;26301;42.832;23.918;2023-08-31T11:02:26;6.68;;;4.65;;
40591;SDS011;26301;42.832;23.918;2023-08-31T11:05:17;6.55;;;4.20;;
40591;SDS011;26301;42.832;23.918;2023-08-31T11:07:44;6.07;;;3.53;;
40591;SDS011;26301;42.832;23.918;2023-08-31T11:10:16;5.45;;;3.92;;
40591;SDS011;26301;42.832;23.918;2023-08-31T11:12:48;6.70;;;4.57;;
40591;SDS011;26301;42.832;23.918;2023-08-31T11:15:18;6.63;;;3.80;;
40591;SDS011;26301;42.832;23.918;2023-08-31T11:17:51;7.13;;;4.32;;
40591;SDS011;26301;42.832;23.918;2023-08-31T11:20:19;6.97;;;4.38;;
40591;SDS011;26301;42.832;23.918;2023-08-31T11:22:53;5.68;;;3.88;;
40591;SDS011;26301;42.832;23.918;2023-08-31T11:25:19;8.35;;;4.28;;
40591;SDS011;26301;42.832;23.918;2023-08-31T11:30:21;5.82;;;4.20;;
40591;SDS011;26301;42.832;23.918;2023-08-31T11:32:48;6.07;;;4.50;;
40591;SDS011;26301;42.832;23.918;2023-08-31T11:35:21;7.60;;;4.07;;
40591;SDS011;26301;42.832;23.918;2023-08-31T11:37:55;5.85;;;4.13;;
40591;SDS011;26301;42.832;23.918;2023-08-31T11:40:21;5.05;;;3.65;;
40591;SDS011;26301;42.832;23.918;2023-08-31T11:42:48;5.72;;;3.95;;
40591;SDS011;26301;42.832;23.918;2023-08-31T11:45:16;6.45;;;4.13;;
40591;SDS011;26301;42.832;23.918;2023-08-31T11:47:43;7.75;;;3.78;;
40591;SDS011;26301;42.832;23.918;2023-08-31T11:50:10;6.68;;;3.78;;
40591;SDS011;26301;42.832;23.918;2023-08-31T11:52:37;5.47;;;3.90;;
40591;SDS011;26301;42.832;23.918;2023-08-31T11:55:09;6.85;;;4.03;;
40591;SDS011;26301;42.832;23.918;2023-08-31T11:57:37;7.20;;;4.20;;
40591;SDS011;26301;42.832;23.918;2023-08-31T12:00:04;7.65;;;3.90;;
40591;SDS011;26301;42.832;23.918;2023-08-31T12:02:35;6.38;;;4.10;;
40591;SDS011;26301;42.832;23.918;2023-08-31T12:05:01;8.55;;;4.13;;
40591;SDS011;26301;42.832;23.918;2023-08-31T12:07:30;6.57;;;4.00;;
40591;SDS011;26301;42.832;23.918;2023-08-31T12:10:03;6.55;;;3.78;;
40591;SDS011;26301;42.832;23.918;2023-08-31T12:12:29;6.45;;;3.88;;
40591;SDS011;26301;42.832;23.918;2023-08-31T12:14:58;4.65;;;3.33;;
40591;SDS011;26301;42.832;23.918;2023-08-31T12:17:28;6.27;;;3.77;;
40591;SDS011;26301;42.832;23.918;2023-08-31T12:20:02;11.43;;;4.32;;
40591;SDS011;26301;42.832;23.918;2023-08-31T12:22:32;6.72;;;3.90;;
40591;SDS011;26301;42.832;23.918;2023-08-31T12:24:58;6.53;;;4.47;;
40591;SDS011;26301;42.832;23.918;2023-08-31T12:27:24;5.90;;;3.95;;
40591;SDS011;26301;42.832;23.918;2023-08-31T12:29:51;5.93;;;4.15;;
40591;SDS011;26301;42.832;23.918;2023-08-31T12:32:17;5.47;;;4.03;;
40591;SDS011;26301;42.832;23.918;2023-08-31T12:34:46;5.88;;;4.20;;
40591;SDS011;26301;42.832;23.918;2023-08-31T12:37:13;5.72;;;3.95;;
40591;SDS011;26301;42.832;23.918;2023-08-31T12:39:39;7.30;;;4.30;;
40591;SDS011;26301;42.832;23.918;2023-08-31T12:42:07;7.50;;;4.07;;
40591;SDS011;26301;42.832;23.918;2023-08-31T12:44:33;6.20;;;4.28;;
40591;SDS011;26301;42.832;23.918;2023-08-31T12:46:59;6.80;;;4.18;;
40591;SDS011;26301;42.832;23.918;2023-08-31T12:49:25;5.70;;;3.72;;
40591;SDS011;26301;42.832;23.918;2023-08-31T12:51:50;6.28;;;3.72;;
40591;SDS011;26301;42.832;23.918;2023-08-31T12:54:17;5.32;;;3.55;;
40591;SDS011;26301;42.832;23.918;2023-08-31T12:56:44;5.43;;;3.60;;
40591;SDS011;26301;42.832;23.918;2023-08-31T12:59:10;5.25;;;3.63;;
40591;SDS011;26301;42.832;23.918;2023-08-31T13:01:36;5.85;;;3.75;;
40591;SDS011;26301;42.832;23.918;2023-08-31T13:04:03;8.80;;;3.55;;
40591;SDS011;26301;42.832;23.918;2023-08-31T13:06:30;5.60;;;3.50;;
40591;SDS011;26301;42.832;23.918;2023-08-31T13:08:56;5.55;;;3.25;;
40591;SDS011;26301;42.832;23.918;2023-08-31T13:11:22;6.50;;;3.42;;
40591;SDS011;26301;42.832;23.918;2023-08-31T13:13:49;4.60;;;3.15;;
40591;SDS011;26301;42.832;23.918;2023-08-31T13:16:18;5.60;;;3.35;;
40591;SDS011;26301;42.832;23.918;2023-08-31T13:18:44;4.72;;;2.97;;
40591;SDS011;26301;42.832;23.918;2023-08-31T13:21:10;6.05;;;3.10;;
40591;SDS011;26301;42.832;23.918;2023-08-31T13:23:36;5.93;;;3.38;;
40591;SDS011;26301;42.832;23.918;2023-08-31T13:26:03;7.22;;;3.60;;
40591;SDS011;26301;42.832;23.918;2023-08-31T13:28:28;7.25;;;2.90;;
40591;SDS011;26301;42.832;23.918;2023-08-31T13:30:55;11.70;;;3.60;;
40591;SDS011;26301;42.832;23.918;2023-08-31T13:33:25;4.95;;;3.13;;
40591;SDS011;26301;42.832;23.918;2023-08-31T13:35:56;6.32;;;2.70;;
40591;SDS011;26301;42.832;23.918;2023-08-31T13:38:26;6.28;;;3.05;;
40591;SDS011;26301;42.832;23.918;2023-08-31T13:40:56;4.47;;;2.50;;
40591;SDS011;26301;42.832;23.918;2023-08-31T13:43:23;5.90;;;2.42;;
40591;SDS011;26301;42.832;23.918;2023-08-31T13:45:49;5.18;;;2.38;;
40591;SDS011;26301;42.832;23.918;2023-08-31T13:48:15;6.05;;;2.60;;
40591;SDS011;26301;42.832;23.918;2023-08-31T13:50:41;4.25;;;2.08;;
40591;SDS011;26301;42.832;23.918;2023-08-31T13:53:08;4.38;;;2.28;;
40591;SDS011;26301;42.832;23.918;2023-08-31T13:55:34;4.75;;;2.38;;
40591;SDS011;26301;42.832;23.918;2023-08-31T13:58:03;5.97;;;2.47;;
40591;SDS011;26301;42.832;23.918;2023-08-31T14:00:33;4.57;;;2.30;;
40591;SDS011;26301;42.832;23.918;2023-08-31T14:03:00;6.75;;;2.17;;
40591;SDS011;26301;42.832;23.918;2023-08-31T14:05:28;4.13;;;2.10;;
40591;SDS011;26301;42.832;23.918;2023-08-31T14:07:54;6.32;;;2.17;;
40591;SDS011;26301;42.832;23.918;2023-08-31T14:10:21;4.13;;;2.20;;
40591;SDS011;26301;42.832;23.918;2023-08-31T14:12:47;5.43;;;2.22;;
40591;SDS011;26301;42.832;23.918;2023-08-31T14:15:13;7.80;;;2.15;;
40591;SDS011;26301;42.832;23.918;2023-08-31T14:17:39;9.27;;;2.40;;
40591;SDS011;26301;42.832;23.918;2023-08-31T14:20:05;4.85;;;2.17;;
40591;SDS011;26301;42.832;23.918;2023-08-31T14:22:35;3.67;;;1.70;;
40591;SDS011;26301;42.832;23.918;2023-08-31T14:25:01;5.03;;;2.17;;
40591;SDS011;26301;42.832;23.918;2023-08-31T14:27:28;4.60;;;2.10;;
40591;SDS011;26301;42.832;23.918;2023-08-31T14:29:56;4.72;;;2.28;;
40591;SDS011;26301;42.832;23.918;2023-08-31T14:32:23;4.63;;;1.80;;
40591;SDS011;26301;42.832;23.918;2023-08-31T14:34:53;4.57;;;2.22;;
40591;SDS011;26301;42.832;23.918;2023-08-31T14:37:20;5.03;;;1.85;;
40591;SDS011;26301;42.832;23.918;2023-08-31T14:39:46;6.35;;;2.13;;
40591;SDS011;26301;42.832;23.918;2023-08-31T14:42:12;5.32;;;2.08;;
40591;SDS011;26301;42.832;23.918;2023-08-31T14:44:40;5.35;;;2.13;;
40591;SDS011;26301;42.832;23.918;2023-08-31T14:47:06;4.35;;;2.00;;
40591;SDS011;26301;42.832;23.918;2023-08-31T14:49:32;5.50;;;2.10;;
40591;SDS011;26301;42.832;23.918;2023-08-31T14:51:58;5.15;;;2.28;;
40591;SDS011;26301;42.832;23.918;2023-08-31T14:54:30;4.90;;;2.00;;
40591;SDS011;26301;42.832;23.918;2023-08-31T14:57:00;5.95;;;2.20;;
40591;SDS011;26301;42.832;23.918;2023-08-31T14:59:29;6.40;;;2.33;;